createdAt,value
2022-12-27T00:01:59.782Z,46.86
2022-12-27T00:04:01.401Z,46.99
2022-12-27T00:06:07.229Z,47.06
2022-12-27T00:08:10.196Z,47.91
2022-12-27T00:10:12.032Z,47.31
2022-12-27T00:12:13.608Z,46.53
2022-12-27T00:14:15.311Z,46.63
2022-12-27T00:16:18.535Z,47.09
2022-12-27T00:18:20.103Z,46.55
2022-12-27T00:20:21.724Z,47.66
2022-12-27T00:22:23.290Z,46.95
2022-12-27T00:24:26.218Z,48.00
2022-12-27T00:26:29.576Z,46.68
2022-12-27T00:28:31.380Z,46.49
2022-12-27T00:30:32.979Z,47.44
2022-12-27T00:32:34.763Z,46.65
2022-12-27T00:34:36.255Z,46.51
2022-12-27T00:36:37.868Z,46.22
2022-12-27T00:38:39.657Z,47.79
2022-12-27T00:40:42.664Z,46.28
2022-12-27T00:42:44.243Z,45.35
2022-12-27T00:44:45.757Z,45.58
2022-12-27T00:46:47.333Z,45.85
2022-12-27T00:48:48.982Z,46.00
2022-12-27T00:50:50.523Z,45.57
2022-12-27T00:52:52.329Z,46.01
2022-12-27T00:54:53.883Z,45.91
2022-12-27T00:56:56.726Z,45.90
2022-12-27T00:59:00.782Z,45.59
2022-12-27T01:01:07.629Z,46.14
2022-12-27T01:03:09.332Z,46.65
2022-12-27T01:05:10.995Z,45.90
2022-12-27T01:07:13.638Z,46.61
2022-12-27T01:09:17.087Z,46.78
2022-12-27T01:11:18.959Z,47.28
2022-12-27T01:13:24.217Z,46.89
2022-12-27T01:15:25.748Z,47.98
2022-12-27T01:17:29.310Z,47.81
2022-12-27T01:19:30.982Z,47.46
2022-12-27T01:21:32.489Z,47.79
2022-12-27T01:23:34.319Z,47.95
2022-12-27T01:25:35.970Z,47.89
2022-12-27T01:27:37.483Z,49.01
2022-12-27T01:29:40.383Z,48.26
2022-12-27T01:31:42.237Z,48.17
2022-12-27T01:33:44.422Z,48.34
2022-12-27T01:35:45.919Z,48.38
2022-12-27T01:37:47.522Z,48.51
2022-12-27T01:39:49.038Z,48.51
2022-12-27T01:41:50.607Z,48.56
2022-12-27T01:43:52.188Z,48.89
2022-12-27T01:45:55.103Z,49.11
2022-12-27T01:48:00.783Z,48.91
2022-12-27T01:50:18.225Z,48.96
2022-12-27T01:52:21.431Z,49.38
2022-12-27T01:54:23.501Z,49.43
2022-12-27T01:56:31.044Z,49.30
2022-12-27T01:58:36.337Z,49.15
2022-12-27T02:00:38.723Z,49.45
2022-12-27T02:15:03.015Z,50.10
2022-12-27T02:17:06.913Z,50.26
2022-12-27T02:19:16.815Z,50.13
2022-12-27T02:21:43.305Z,50.01
2022-12-27T02:23:57.867Z,50.04
2022-12-27T02:26:26.273Z,50.04
2022-12-27T02:28:48.963Z,50.51
2022-12-27T02:30:53.436Z,50.97
2022-12-27T02:33:00.178Z,49.93
2022-12-27T02:35:12.543Z,50.10
2022-12-27T02:37:14.474Z,50.34
2022-12-27T02:39:19.207Z,50.66
2022-12-27T02:41:21.179Z,50.77
2022-12-27T02:43:22.800Z,50.23
2022-12-27T02:45:30.135Z,50.04
2022-12-27T02:47:32.846Z,50.44
2022-12-27T02:49:36.771Z,50.42
2022-12-27T02:51:51.024Z,51.12
2022-12-27T02:54:02.553Z,50.60
2022-12-27T02:56:19.967Z,50.21
2022-12-27T02:58:30.668Z,50.62
2022-12-27T03:00:42.823Z,50.93
2022-12-27T03:03:16.109Z,51.67
2022-12-27T03:05:25.405Z,50.81
2022-12-27T03:07:37.721Z,51.02
2022-12-27T03:09:55.249Z,51.15
2022-12-27T03:11:56.964Z,51.62
2022-12-27T03:14:07.322Z,51.46
2022-12-27T03:16:18.527Z,51.68
2022-12-27T03:18:25.448Z,52.05
2022-12-27T03:20:27.293Z,52.04
2022-12-27T03:22:30.785Z,52.11
2022-12-27T03:24:35.427Z,52.57
2022-12-27T03:26:39.979Z,52.63
2022-12-27T03:28:44.973Z,52.65
2022-12-27T03:30:52.489Z,52.86
2022-12-27T03:32:59.141Z,52.90
2022-12-27T03:35:08.081Z,53.07
2022-12-27T03:37:14.219Z,53.02
2022-12-27T03:39:20.335Z,52.58
2022-12-27T03:41:27.216Z,52.91
2022-12-27T03:43:29.856Z,52.86
2022-12-27T03:45:39.510Z,52.94
2022-12-27T03:47:48.939Z,53.08
2022-12-27T03:49:58.599Z,53.32
2022-12-27T03:52:06.916Z,53.38
2022-12-27T03:54:16.253Z,53.24
2022-12-27T03:56:18.266Z,53.58
2022-12-27T03:58:20.404Z,53.16
2022-12-27T04:00:22.206Z,53.36
2022-12-27T04:02:23.873Z,53.35
2022-12-27T04:04:25.583Z,53.18
2022-12-27T04:06:28.580Z,53.38
2022-12-27T04:08:30.161Z,53.74
2022-12-27T04:10:31.793Z,53.81
2022-12-27T04:12:33.336Z,53.37
2022-12-27T04:14:34.879Z,53.17
2022-12-27T04:16:36.445Z,53.18
2022-12-27T04:18:37.991Z,53.79
2022-12-27T04:20:39.718Z,53.54
2022-12-27T04:22:42.717Z,53.43
2022-12-27T04:24:44.314Z,53.35
2022-12-27T04:26:45.821Z,53.23
2022-12-27T04:28:47.494Z,53.37
2022-12-27T04:30:49.212Z,53.42
2022-12-27T04:32:50.783Z,53.55
2022-12-27T04:34:52.360Z,53.45
2022-12-27T04:36:53.950Z,53.73
2022-12-27T04:38:56.866Z,53.93
2022-12-27T04:40:58.489Z,54.03
2022-12-27T04:43:00.114Z,53.99
2022-12-27T04:45:01.617Z,54.44
2022-12-27T04:47:03.456Z,54.91
2022-12-27T04:49:05.279Z,54.98
2022-12-27T04:51:09.121Z,54.82
2022-12-27T04:53:11.892Z,54.89
2022-12-27T04:55:18.704Z,55.04
2022-12-27T04:57:20.258Z,55.26
2022-12-27T04:59:21.840Z,55.05
2022-12-27T05:01:23.633Z,54.78
2022-12-27T05:03:25.537Z,54.62
2022-12-27T05:05:27.445Z,54.76
2022-12-27T05:07:29.145Z,55.11
2022-12-27T05:09:30.740Z,54.71
2022-12-27T05:11:33.714Z,54.33
2022-12-27T05:13:35.360Z,54.69
2022-12-27T05:15:37.017Z,55.10
2022-12-27T05:17:38.570Z,55.15
2022-12-27T05:19:40.213Z,55.38
2022-12-27T05:21:44.571Z,55.36
2022-12-27T05:23:46.176Z,55.64
2022-12-27T05:25:47.763Z,55.79
2022-12-27T05:27:50.707Z,56.47
2022-12-27T05:29:52.287Z,56.96
2022-12-27T05:31:53.874Z,56.88
2022-12-27T05:33:56.462Z,56.76
2022-12-27T05:35:59.136Z,57.05
2022-12-27T05:38:01.303Z,56.64
2022-12-27T05:40:02.951Z,56.86
2022-12-27T05:42:04.739Z,56.79
2022-12-27T05:44:07.896Z,56.53
2022-12-27T05:46:10.998Z,56.59
2022-12-27T05:48:12.785Z,56.07
2022-12-27T05:50:14.417Z,56.45
2022-12-27T05:52:15.982Z,56.51
2022-12-27T05:54:17.615Z,56.77
2022-12-27T05:56:20.679Z,56.74
2022-12-27T05:58:22.293Z,57.00
2022-12-27T06:00:25.278Z,57.43
2022-12-27T06:02:26.949Z,57.78
2022-12-27T06:04:28.624Z,57.82
2022-12-27T06:06:30.264Z,58.30
2022-12-27T06:08:32.523Z,57.92
2022-12-27T06:10:34.090Z,58.19
2022-12-27T06:12:36.223Z,57.92
2022-12-27T06:14:37.796Z,58.05
2022-12-27T06:16:40.762Z,58.32
2022-12-27T06:18:42.704Z,58.35
2022-12-27T06:20:44.258Z,58.77
2022-12-27T06:22:45.910Z,58.45
2022-12-27T06:24:47.522Z,58.72
2022-12-27T06:26:49.184Z,58.75
2022-12-27T06:28:52.029Z,58.72
2022-12-27T06:30:53.655Z,58.66
2022-12-27T06:32:56.614Z,58.73
2022-12-27T06:35:01.265Z,58.58
2022-12-27T06:37:02.944Z,58.08
2022-12-27T06:39:04.538Z,58.38
2022-12-27T06:41:08.401Z,58.42
2022-12-27T06:43:10.149Z,58.38
2022-12-27T06:45:11.760Z,58.73
2022-12-27T06:47:13.413Z,58.81
2022-12-27T06:49:16.448Z,58.65
2022-12-27T06:51:20.035Z,58.74
2022-12-27T06:53:21.913Z,58.43
2022-12-27T06:55:24.041Z,58.61
2022-12-27T06:57:25.602Z,58.91
2022-12-27T06:59:27.223Z,58.96
2022-12-27T07:01:29.125Z,58.91
2022-12-27T07:03:30.745Z,58.89
2022-12-27T07:05:34.949Z,58.80
2022-12-27T07:07:36.561Z,59.05
2022-12-27T07:09:38.139Z,59.05
2022-12-27T07:11:39.771Z,59.40
2022-12-27T07:13:43.638Z,59.27
2022-12-27T07:15:45.281Z,59.08
2022-12-27T07:17:46.851Z,59.04
2022-12-27T07:19:48.491Z,59.05
2022-12-27T07:21:51.485Z,58.91
2022-12-27T07:23:53.478Z,59.23
2022-12-27T07:25:55.199Z,59.18
2022-12-27T07:27:56.750Z,59.20
2022-12-27T07:34:25.456Z,58.90
2022-12-27T07:36:30.022Z,59.07
2022-12-27T07:38:33.248Z,58.96
2022-12-27T07:40:36.754Z,59.16
2022-12-27T07:42:40.285Z,59.16
2022-12-27T07:44:44.727Z,59.34
2022-12-27T07:46:52.452Z,59.35
2022-12-27T07:49:03.392Z,59.47
2022-12-27T07:51:05.669Z,59.29
2022-12-27T07:53:07.836Z,59.55
2022-12-27T07:55:13.520Z,59.39
2022-12-27T07:57:15.248Z,59.66
2022-12-27T07:59:16.953Z,59.49
2022-12-27T08:01:20.326Z,59.54
2022-12-27T08:03:22.162Z,59.52
2022-12-27T08:05:27.594Z,59.40
2022-12-27T08:07:29.782Z,59.36
2022-12-27T08:09:35.208Z,59.49
2022-12-27T08:11:38.481Z,59.40
2022-12-27T08:13:40.179Z,59.44
2022-12-27T08:15:44.419Z,59.49
2022-12-27T08:17:46.103Z,59.22
2022-12-27T08:19:48.119Z,59.22
2022-12-27T08:21:49.758Z,59.09
2022-12-27T08:23:51.428Z,59.24
2022-12-27T08:25:53.085Z,58.90
2022-12-27T08:28:04.952Z,59.23
2022-12-27T08:30:08.384Z,59.26
2022-12-27T08:32:10.044Z,59.20
2022-12-27T08:34:11.772Z,58.97
2022-12-27T08:36:54.116Z,59.13
2022-12-27T08:38:41.288Z,58.88
2022-12-27T08:40:44.610Z,58.83
2022-12-27T08:42:46.455Z,59.31
2022-12-27T08:44:49.518Z,59.03
2022-12-27T08:46:51.285Z,59.23
2022-12-27T08:48:53.046Z,58.91
2022-12-27T08:50:55.114Z,58.75
2022-12-27T08:52:57.728Z,59.08
2022-12-27T08:54:59.512Z,58.86
2022-12-27T08:57:01.189Z,58.69
2022-12-27T08:59:03.296Z,58.72
2022-12-27T09:01:07.748Z,58.54
2022-12-27T09:03:31.807Z,58.74
2022-12-27T09:05:41.392Z,58.60
2022-12-27T09:07:43.754Z,59.00
2022-12-27T09:09:45.428Z,58.53
2022-12-27T09:11:47.150Z,58.60
2022-12-27T09:13:48.936Z,58.45
2022-12-27T09:15:50.658Z,58.17
2022-12-27T09:17:53.843Z,57.86
2022-12-27T09:19:56.332Z,57.68
2022-12-27T09:22:01.406Z,57.96
2022-12-27T09:24:03.378Z,57.92
2022-12-27T09:26:06.598Z,57.96
2022-12-27T09:28:08.369Z,58.16
2022-12-27T09:30:10.954Z,58.00
2022-12-27T09:32:12.588Z,58.19
2022-12-27T09:34:15.923Z,58.20
2022-12-27T09:36:19.772Z,58.11
2022-12-27T09:38:21.541Z,58.16
2022-12-27T09:40:23.385Z,58.28
2022-12-27T09:43:00.724Z,58.41
2022-12-27T09:45:09.149Z,58.72
2022-12-27T09:47:15.684Z,58.68
2022-12-27T09:49:27.341Z,58.40
2022-12-27T09:51:35.627Z,58.32
2022-12-27T09:53:46.454Z,58.32
2022-12-27T09:55:51.866Z,58.56
2022-12-27T09:58:12.637Z,57.77
2022-12-27T10:00:17.735Z,58.75
2022-12-27T10:02:21.538Z,59.04
2022-12-27T10:04:34.657Z,58.50
2022-12-27T10:07:04.302Z,58.75
2022-12-27T10:09:23.569Z,58.49
2022-12-27T10:11:37.215Z,58.28
2022-12-27T10:13:49.683Z,58.26
2022-12-27T10:16:05.522Z,58.07
2022-12-27T10:20:58.743Z,57.63
2022-12-27T10:23:06.603Z,57.60
2022-12-27T10:25:13.839Z,57.97
2022-12-27T10:27:23.829Z,57.80
2022-12-27T10:29:31.737Z,58.06
2022-12-27T10:31:44.985Z,58.03
2022-12-27T10:34:10.506Z,58.11
2022-12-27T10:36:35.183Z,58.17
2022-12-27T10:38:44.210Z,58.15
2022-12-27T10:43:55.015Z,57.77
2022-12-27T10:46:12.136Z,58.28
2022-12-27T10:48:18.325Z,57.63
2022-12-27T10:50:23.158Z,57.70
2022-12-27T10:52:32.938Z,57.32
2022-12-27T10:54:53.712Z,57.19
2022-12-27T10:56:56.464Z,57.61
2022-12-27T10:59:16.210Z,56.78
2022-12-27T11:01:25.118Z,56.78
2022-12-27T11:03:26.997Z,56.78
2022-12-27T11:05:39.260Z,56.77
2022-12-27T11:07:42.929Z,56.70
2022-12-27T11:09:50.662Z,55.95
2022-12-27T11:12:10.904Z,56.27
2022-12-27T11:14:17.377Z,56.14
2022-12-27T11:16:28.571Z,55.99
2022-12-27T11:18:34.211Z,56.22
2022-12-27T11:20:41.537Z,56.41
2022-12-27T11:22:47.286Z,55.60
2022-12-27T11:24:52.450Z,55.30
2022-12-27T11:26:57.586Z,55.54
2022-12-27T11:29:01.823Z,55.34
2022-12-27T11:31:06.948Z,55.13
2022-12-27T11:33:24.418Z,55.05
2022-12-27T11:35:27.218Z,54.79
2022-12-27T11:37:31.267Z,54.39
2022-12-27T11:39:44.965Z,54.45
2022-12-27T11:41:52.872Z,54.27
2022-12-27T11:44:00.381Z,54.34
2022-12-27T11:46:05.672Z,53.35
2022-12-27T11:48:20.504Z,53.59
2022-12-27T11:50:40.936Z,53.86
2022-12-27T11:53:09.043Z,54.14
2022-12-27T11:55:47.025Z,53.23
2022-12-27T11:58:22.003Z,54.02
2022-12-27T12:00:25.677Z,54.00
2022-12-27T12:02:39.140Z,54.17
2022-12-27T12:05:16.959Z,53.13
2022-12-27T12:07:31.741Z,53.17
2022-12-27T12:09:54.076Z,53.12
2022-12-27T12:12:38.976Z,52.17
2022-12-27T12:14:57.007Z,51.15
2022-12-27T12:17:22.431Z,51.68
2022-12-27T12:19:42.164Z,50.76
2022-12-27T12:21:57.747Z,51.53
2022-12-27T12:24:35.667Z,51.14
2022-12-27T12:26:55.533Z,52.16
2022-12-27T12:29:26.183Z,51.02
2022-12-27T12:31:54.326Z,51.67
2022-12-27T12:34:27.407Z,51.89
2022-12-27T12:36:52.923Z,51.09
2022-12-27T12:39:02.699Z,51.47
2022-12-27T12:41:34.742Z,52.82
2022-12-27T12:44:16.574Z,52.58
2022-12-27T12:46:29.185Z,52.11
2022-12-27T12:49:08.042Z,52.03
2022-12-27T12:51:26.407Z,51.67
2022-12-27T12:53:46.813Z,52.20
2022-12-27T12:56:07.580Z,51.87
2022-12-27T12:58:24.321Z,52.61
2022-12-27T13:00:42.990Z,52.33
2022-12-27T13:03:10.822Z,52.45
2022-12-27T13:05:22.171Z,52.86
2022-12-27T13:07:47.655Z,52.79
2022-12-27T13:10:23.110Z,53.10
2022-12-27T13:12:38.580Z,53.12
2022-12-27T13:15:03.809Z,53.80
2022-12-27T13:17:12.447Z,52.98
2022-12-27T13:19:34.472Z,52.74
2022-12-27T13:21:53.737Z,52.33
2022-12-27T13:24:12.222Z,52.47
2022-12-27T13:26:22.569Z,52.61
2022-12-27T13:28:34.945Z,52.73
2022-12-27T13:30:41.892Z,51.85
2022-12-27T13:33:01.170Z,52.59
2022-12-27T13:35:32.779Z,52.58
2022-12-27T13:37:54.248Z,52.28
2022-12-27T13:40:10.849Z,51.45
2022-12-27T13:42:59.114Z,51.57
2022-12-27T13:45:07.342Z,52.09
2022-12-27T13:47:43.021Z,51.78
2022-12-27T13:50:03.322Z,52.59
2022-12-27T13:52:16.758Z,52.48
2022-12-27T13:54:55.329Z,53.05
2022-12-27T13:57:08.523Z,53.34
2022-12-27T13:59:36.205Z,53.17
2022-12-27T14:02:11.711Z,53.34
2022-12-27T14:04:41.859Z,52.83
2022-12-27T14:06:59.799Z,53.01
2022-12-27T14:09:37.153Z,52.57
2022-12-27T14:11:54.108Z,52.75
2022-12-27T14:13:58.301Z,52.28
2022-12-27T14:16:24.521Z,52.90
2022-12-27T14:18:50.262Z,52.99
2022-12-27T14:21:09.633Z,53.27
2022-12-27T14:23:42.615Z,53.54
2022-12-27T14:26:16.716Z,52.99
2022-12-27T14:28:59.658Z,52.93
2022-12-27T14:31:38.869Z,52.87
2022-12-27T14:34:13.773Z,52.98
2022-12-27T14:36:42.503Z,53.30
2022-12-27T14:39:16.277Z,53.04
2022-12-27T14:41:45.681Z,53.39
2022-12-27T14:44:28.965Z,53.24
2022-12-27T14:47:09.752Z,53.14
2022-12-27T14:50:04.217Z,53.55
2022-12-27T14:52:47.493Z,53.09
2022-12-27T14:55:24.951Z,52.83
2022-12-27T14:57:39.627Z,53.08
2022-12-27T14:59:53.003Z,52.65
2022-12-27T15:02:09.501Z,52.83
2022-12-27T15:04:38.652Z,53.04
2022-12-27T15:07:14.265Z,53.18
2022-12-27T15:09:36.435Z,53.20
2022-12-27T15:11:54.671Z,53.35
2022-12-27T15:14:20.692Z,53.22
2022-12-27T15:16:34.313Z,53.77
2022-12-27T15:18:52.675Z,53.88
2022-12-27T15:21:10.458Z,53.70
2022-12-27T15:23:24.139Z,53.63
2022-12-27T15:25:47.838Z,53.73
2022-12-27T15:28:01.350Z,53.63
2022-12-27T15:30:25.442Z,53.86
2022-12-27T15:32:37.206Z,53.89
2022-12-27T15:34:57.135Z,54.11
2022-12-27T15:36:59.531Z,54.12
2022-12-27T15:39:01.884Z,54.19
2022-12-27T15:41:47.449Z,54.21
2022-12-27T15:44:04.010Z,54.53
2022-12-27T15:46:35.749Z,54.53
2022-12-27T15:49:02.999Z,54.33
2022-12-27T15:51:11.333Z,54.21
2022-12-27T15:53:28.089Z,54.29
2022-12-27T15:58:37.465Z,53.95
2022-12-27T16:00:46.573Z,54.27
2022-12-27T16:03:21.133Z,54.16
2022-12-27T16:05:59.256Z,54.07
2022-12-27T16:12:02.693Z,54.17
2022-12-27T16:14:34.299Z,54.39
2022-12-27T16:17:22.923Z,54.68
2022-12-27T16:20:01.053Z,54.58
2022-12-27T16:22:23.751Z,54.77
2022-12-27T16:24:32.495Z,54.56
2022-12-27T16:27:10.385Z,54.41
2022-12-27T16:29:21.261Z,54.65
2022-12-27T16:31:25.204Z,54.35
2022-12-27T16:33:42.540Z,54.52
2022-12-27T16:35:44.756Z,54.61
2022-12-27T16:37:54.898Z,54.17
2022-12-27T16:40:36.231Z,54.33
2022-12-27T16:43:26.444Z,54.31
2022-12-27T16:45:38.565Z,54.61
2022-12-27T16:50:08.900Z,54.53
2022-12-27T16:52:32.229Z,54.58
2022-12-27T16:54:49.408Z,54.73
2022-12-27T16:57:49.708Z,54.64
2022-12-27T17:00:00.233Z,54.40
2022-12-27T17:02:02.140Z,54.67
2022-12-27T17:04:04.422Z,54.62
2022-12-27T17:06:40.400Z,54.77
2022-12-27T17:09:06.303Z,54.63
2022-12-27T17:11:25.875Z,54.64
2022-12-27T17:13:40.197Z,54.71
2022-12-27T17:15:49.762Z,54.75
2022-12-27T17:17:55.727Z,54.38
2022-12-27T17:20:03.552Z,54.43
2022-12-27T17:22:08.204Z,54.39
2022-12-27T17:24:14.014Z,54.43
2022-12-27T17:26:40.498Z,54.50
2022-12-27T17:28:52.497Z,54.10
2022-12-27T17:31:02.865Z,54.36
2022-12-27T17:33:29.025Z,54.27
2022-12-27T17:35:40.945Z,54.68
2022-12-27T17:37:51.307Z,54.47
2022-12-27T17:40:10.215Z,54.23
2022-12-27T17:42:19.283Z,54.48
2022-12-27T17:44:32.576Z,54.41
2022-12-27T17:46:42.878Z,54.51
2022-12-27T17:48:45.771Z,54.41
2022-12-27T17:50:49.836Z,54.65
2022-12-27T17:53:15.556Z,54.34
2022-12-27T17:55:21.032Z,54.34
2022-12-27T17:57:23.105Z,54.47
2022-12-27T17:59:29.098Z,54.62
2022-12-27T18:01:44.045Z,55.21
2022-12-27T18:03:47.495Z,55.04
2022-12-27T18:05:49.786Z,54.42
2022-12-27T18:07:59.607Z,54.49
2022-12-27T18:10:04.888Z,54.36
2022-12-27T18:12:15.661Z,54.00
2022-12-27T18:14:17.674Z,54.00
2022-12-27T18:16:30.442Z,54.10
2022-12-27T18:18:34.088Z,54.20
2022-12-27T18:20:38.561Z,54.21
2022-12-27T18:22:40.138Z,54.23
2022-12-27T18:24:41.911Z,54.25
2022-12-27T18:26:43.843Z,54.39
2022-12-27T18:28:45.928Z,54.36
2022-12-27T18:30:50.239Z,54.29
2022-12-27T18:32:55.713Z,54.33
2022-12-27T18:35:01.154Z,54.38
2022-12-27T18:37:06.580Z,54.28
2022-12-27T18:39:20.235Z,54.39
2022-12-27T18:41:23.406Z,54.62
2022-12-27T18:43:25.598Z,54.42
2022-12-27T18:45:31.189Z,54.38
2022-12-27T18:47:37.914Z,54.44
2022-12-27T18:49:41.014Z,54.21
2022-12-27T18:51:43.068Z,54.47
2022-12-27T18:53:44.801Z,54.44
2022-12-27T18:55:57.367Z,54.05
2022-12-27T18:58:06.695Z,53.79
2022-12-27T19:00:19.251Z,53.59
2022-12-27T19:02:33.903Z,53.77
2022-12-27T19:04:35.985Z,53.58
2022-12-27T19:06:39.585Z,53.63
2022-12-27T19:08:46.858Z,53.42
2022-12-27T19:10:51.572Z,53.36
2022-12-27T19:12:54.834Z,53.27
2022-12-27T19:14:57.445Z,53.30
2022-12-27T19:17:04.061Z,53.05
2022-12-27T19:19:18.724Z,52.96
2022-12-27T19:21:30.219Z,52.94
2022-12-27T19:23:36.170Z,52.79
2022-12-27T19:25:37.778Z,53.00
2022-12-27T19:27:39.414Z,52.92
2022-12-27T19:29:49.218Z,53.09
2022-12-27T19:31:54.492Z,52.89
2022-12-27T19:34:00.543Z,52.76
2022-12-27T19:36:07.021Z,52.86
2022-12-27T19:38:19.813Z,52.86
2022-12-27T19:40:23.658Z,52.69
2022-12-27T19:42:28.086Z,52.84
2022-12-27T19:44:31.679Z,52.80
2022-12-27T19:46:33.882Z,52.91
2022-12-27T19:48:35.648Z,52.57
2022-12-27T19:50:39.939Z,52.46
2022-12-27T19:52:41.745Z,52.65
2022-12-27T19:54:43.969Z,52.59
2022-12-27T19:56:47.895Z,52.47
2022-12-27T19:58:50.593Z,52.65
2022-12-27T20:00:54.534Z,52.82
2022-12-27T20:02:56.504Z,52.51
2022-12-27T20:04:58.437Z,52.52
2022-12-27T20:07:01.251Z,52.82
2022-12-27T20:09:04.415Z,52.29
2022-12-27T20:11:10.727Z,52.53
2022-12-27T20:13:14.250Z,52.43
2022-12-27T20:15:16.225Z,52.46
2022-12-27T20:17:18.202Z,52.55
2022-12-27T20:19:23.188Z,52.41
2022-12-27T20:21:24.930Z,52.58
2022-12-27T20:23:29.307Z,52.79
2022-12-27T20:25:31.784Z,52.60
2022-12-27T20:27:41.266Z,52.73
2022-12-27T20:29:44.924Z,52.58
2022-12-27T20:31:46.836Z,52.21
2022-12-27T20:33:51.996Z,52.19
2022-12-27T20:36:00.050Z,52.18
2022-12-27T20:38:02.136Z,51.83
2022-12-27T20:40:04.706Z,52.07
2022-12-27T20:42:06.517Z,52.22
2022-12-27T20:44:09.949Z,52.19
2022-12-27T20:46:15.774Z,52.18
2022-12-27T20:48:17.529Z,52.02
2022-12-27T20:50:19.448Z,51.92
2022-12-27T20:52:24.402Z,52.26
2022-12-27T20:54:30.502Z,52.08
2022-12-27T20:56:32.264Z,52.53
2022-12-27T20:58:37.173Z,52.53
2022-12-27T21:00:39.223Z,52.49
2022-12-27T21:02:42.699Z,52.98
2022-12-27T21:04:44.635Z,52.75
2022-12-27T21:06:46.331Z,52.81
2022-12-27T21:08:56.214Z,52.95
2022-12-27T21:11:05.060Z,52.97
2022-12-27T21:13:09.468Z,53.17
2022-12-27T21:15:11.295Z,53.37
2022-12-27T21:17:13.014Z,53.21
2022-12-27T21:19:16.005Z,53.18
2022-12-27T21:21:20.052Z,53.17
2022-12-27T21:23:21.715Z,53.31
2022-12-27T21:25:23.279Z,53.39
2022-12-27T21:27:24.853Z,53.45
2022-12-27T21:29:26.754Z,53.54
2022-12-27T21:31:29.550Z,53.49
2022-12-27T21:33:32.123Z,53.69
2022-12-27T21:35:35.260Z,53.54
2022-12-27T21:37:36.860Z,53.69
2022-12-27T21:39:38.614Z,53.58
2022-12-27T21:41:40.965Z,53.62
2022-12-27T21:43:43.225Z,53.59
2022-12-27T21:45:44.989Z,53.69
2022-12-27T21:47:50.990Z,53.64
2022-12-27T21:49:52.575Z,53.84
2022-12-27T21:51:55.726Z,53.76
2022-12-27T21:53:58.339Z,53.42
2022-12-27T21:56:00.120Z,53.93
2022-12-27T21:58:01.761Z,53.94
2022-12-27T22:00:04.046Z,53.84
2022-12-27T22:02:08.833Z,54.03
2022-12-27T22:04:10.566Z,54.30
2022-12-27T22:06:14.591Z,54.75
2022-12-27T22:08:17.493Z,54.49
2022-12-27T22:10:19.213Z,54.59
2022-12-27T22:12:20.784Z,54.76
2022-12-27T22:14:25.638Z,54.71
2022-12-27T22:16:30.072Z,55.37
2022-12-27T22:18:32.683Z,55.20
2022-12-27T22:20:34.279Z,55.40
2022-12-27T22:22:35.916Z,55.64
2022-12-27T22:24:38.853Z,55.81
2022-12-27T22:26:40.512Z,55.87
2022-12-27T22:28:42.771Z,55.74
2022-12-27T22:30:44.387Z,56.14
2022-12-27T22:32:46.060Z,56.16
2022-12-27T22:34:47.797Z,56.53
2022-12-27T22:36:50.663Z,56.21
2022-12-27T22:38:52.477Z,56.67
2022-12-27T22:41:03.628Z,56.75
2022-12-27T22:43:05.307Z,56.83
2022-12-27T22:45:07.643Z,56.85
2022-12-27T22:47:26.204Z,57.01
2022-12-27T22:49:28.779Z,57.12
2022-12-27T22:51:32.852Z,57.32
2022-12-27T22:53:34.615Z,57.31
2022-12-27T22:55:40.112Z,57.29
2022-12-27T22:57:46.180Z,57.13
2022-12-27T22:59:47.864Z,57.36
2022-12-27T23:01:49.503Z,57.58
2022-12-27T23:03:51.305Z,57.43
2022-12-27T23:05:57.252Z,57.67
2022-12-27T23:08:05.981Z,57.80
2022-12-27T23:10:09.940Z,58.23
2022-12-27T23:12:11.554Z,57.94
2022-12-27T23:14:16.797Z,57.86
2022-12-27T23:16:18.475Z,58.29
2022-12-27T23:18:20.076Z,58.38
2022-12-27T23:20:21.693Z,58.22
2022-12-27T23:22:23.319Z,58.63
2022-12-27T23:24:24.954Z,59.07
2022-12-27T23:26:27.203Z,58.75
2022-12-27T23:28:28.819Z,58.82
2022-12-27T23:30:32.124Z,58.66
2022-12-27T23:32:33.715Z,58.65
2022-12-27T23:34:35.342Z,58.87
2022-12-27T23:36:36.955Z,58.87
2022-12-27T23:38:39.445Z,58.72
2022-12-27T23:40:41.136Z,58.80
2022-12-27T23:42:42.789Z,58.94
2022-12-27T23:44:44.371Z,58.81
2022-12-27T23:46:47.316Z,58.98
2022-12-27T23:48:49.342Z,59.07
2022-12-27T23:50:50.881Z,59.16
2022-12-27T23:52:52.423Z,59.10
2022-12-27T23:54:54.124Z,59.15
2022-12-27T23:56:55.679Z,59.00
2022-12-27T23:58:59.320Z,59.02
